sensor_id;sensor_type;location;lat;lon;timestamp;P1;durP1;ratioP1;P2;durP2;ratioP2
76636;SDS011;65532;52.124;5.480;2023-07-13T00:01:53;3.25;;;0.55;;
76636;SDS011;65532;52.124;5.480;2023-07-13T00:04:21;9.48;;;0.50;;
76636;SDS011;65532;52.124;5.480;2023-07-13T00:06:49;3.58;;;0.50;;
76636;SDS011;65532;52.124;5.480;2023-07-13T00:09:17;6.18;;;1.10;;
76636;SDS011;65532;52.124;5.480;2023-07-13T00:11:44;8.60;;;1.05;;
76636;SDS011;65532;52.124;5.480;2023-07-13T00:14:13;4.68;;;1.35;;
76636;SDS011;65532;52.124;5.480;2023-07-13T00:16:41;7.75;;;0.50;;
76636;SDS011;65532;52.124;5.480;2023-07-13T00:19:10;3.72;;;1.23;;
76636;SDS011;65532;52.124;5.480;2023-07-13T00:21:41;5.07;;;0.55;;
76636;SDS011;65532;52.124;5.480;2023-07-13T00:24:10;7.40;;;0.63;;
76636;SDS011;65532;52.124;5.480;2023-07-13T00:26:42;5.10;;;0.50;;
76636;SDS011;65532;52.124;5.480;2023-07-13T00:29:12;5.43;;;1.13;;
76636;SDS011;65532;52.124;5.480;2023-07-13T00:31:39;5.88;;;0.57;;
76636;SDS011;65532;52.124;5.480;2023-07-13T00:34:06;7.40;;;0.70;;
76636;SDS011;65532;52.124;5.480;2023-07-13T00:36:33;4.47;;;0.65;;
76636;SDS011;65532;52.124;5.480;2023-07-13T00:39:00;5.13;;;0.82;;
76636;SDS011;65532;52.124;5.480;2023-07-13T00:41:27;4.22;;;0.47;;
76636;SDS011;65532;52.124;5.480;2023-07-13T00:43:53;6.10;;;1.08;;
76636;SDS011;65532;52.124;5.480;2023-07-13T00:46:22;4.03;;;0.85;;
76636;SDS011;65532;52.124;5.480;2023-07-13T00:48:54;6.05;;;1.27;;
76636;SDS011;65532;52.124;5.480;2023-07-13T00:51:29;5.07;;;0.73;;
76636;SDS011;65532;52.124;5.480;2023-07-13T00:54:00;3.78;;;1.80;;
76636;SDS011;65532;52.124;5.480;2023-07-13T00:56:31;3.67;;;0.77;;
76636;SDS011;65532;52.124;5.480;2023-07-13T00:58:59;5.32;;;1.25;;
76636;SDS011;65532;52.124;5.480;2023-07-13T01:01:29;4.75;;;0.80;;
76636;SDS011;65532;52.124;5.480;2023-07-13T01:03:55;5.90;;;0.60;;
76636;SDS011;65532;52.124;5.480;2023-07-13T01:06:24;3.80;;;0.85;;
76636;SDS011;65532;52.124;5.480;2023-07-13T01:08:51;4.40;;;0.85;;
76636;SDS011;65532;52.124;5.480;2023-07-13T01:11:19;5.68;;;1.05;;
76636;SDS011;65532;52.124;5.480;2023-07-13T01:13:48;6.30;;;1.38;;
76636;SDS011;65532;52.124;5.480;2023-07-13T01:16:19;5.63;;;0.63;;
76636;SDS011;65532;52.124;5.480;2023-07-13T01:18:53;3.50;;;0.47;;
76636;SDS011;65532;52.124;5.480;2023-07-13T01:21:24;4.22;;;0.70;;
76636;SDS011;65532;52.124;5.480;2023-07-13T01:23:52;4.75;;;1.15;;
76636;SDS011;65532;52.124;5.480;2023-07-13T01:26:20;4.10;;;1.02;;
76636;SDS011;65532;52.124;5.480;2023-07-13T01:28:47;4.93;;;1.50;;
76636;SDS011;65532;52.124;5.480;2023-07-13T01:31:13;4.82;;;0.80;;
76636;SDS011;65532;52.124;5.480;2023-07-13T01:33:40;3.53;;;0.70;;
76636;SDS011;65532;52.124;5.480;2023-07-13T01:36:08;3.53;;;0.57;;
76636;SDS011;65532;52.124;5.480;2023-07-13T01:38:37;5.32;;;2.47;;
76636;SDS011;65532;52.124;5.480;2023-07-13T01:41:04;5.43;;;1.27;;
76636;SDS011;65532;52.124;5.480;2023-07-13T01:43:30;4.40;;;0.80;;
76636;SDS011;65532;52.124;5.480;2023-07-13T01:45:58;3.00;;;0.55;;
76636;SDS011;65532;52.124;5.480;2023-07-13T01:48:45;8.00;;;1.65;;
76636;SDS011;65532;52.124;5.480;2023-07-13T01:51:11;3.15;;;0.55;;
76636;SDS011;65532;52.124;5.480;2023-07-13T01:53:39;6.15;;;1.08;;
76636;SDS011;65532;52.124;5.480;2023-07-13T01:56:06;4.32;;;1.48;;
76636;SDS011;65532;52.124;5.480;2023-07-13T01:58:33;6.70;;;1.02;;
76636;SDS011;65532;52.124;5.480;2023-07-13T02:00:59;3.00;;;0.93;;
76636;SDS011;65532;52.124;5.480;2023-07-13T02:03:27;7.78;;;0.60;;
76636;SDS011;65532;52.124;5.480;2023-07-13T02:05:53;3.80;;;0.52;;
76636;SDS011;65532;52.124;5.480;2023-07-13T02:08:20;3.83;;;1.25;;
76636;SDS011;65532;52.124;5.480;2023-07-13T02:10:46;6.68;;;1.02;;
76636;SDS011;65532;52.124;5.480;2023-07-13T02:13:13;5.88;;;0.77;;
76636;SDS011;65532;52.124;5.480;2023-07-13T02:15:40;2.55;;;0.43;;
76636;SDS011;65532;52.124;5.480;2023-07-13T02:18:07;6.40;;;1.65;;
76636;SDS011;65532;52.124;5.480;2023-07-13T02:20:34;4.43;;;0.95;;
76636;SDS011;65532;52.124;5.480;2023-07-13T02:23:00;5.65;;;2.03;;
76636;SDS011;65532;52.124;5.480;2023-07-13T02:25:27;5.70;;;1.50;;
76636;SDS011;65532;52.124;5.480;2023-07-13T02:27:54;4.85;;;1.17;;
76636;SDS011;65532;52.124;5.480;2023-07-13T02:30:20;2.58;;;0.57;;
76636;SDS011;65532;52.124;5.480;2023-07-13T02:32:49;6.75;;;1.20;;
76636;SDS011;65532;52.124;5.480;2023-07-13T02:35:16;4.60;;;3.08;;
76636;SDS011;65532;52.124;5.480;2023-07-13T02:37:43;8.23;;;1.90;;
76636;SDS011;65532;52.124;5.480;2023-07-13T02:40:10;4.88;;;0.88;;
76636;SDS011;65532;52.124;5.480;2023-07-13T02:42:36;4.85;;;1.15;;
76636;SDS011;65532;52.124;5.480;2023-07-13T02:45:05;5.07;;;1.38;;
76636;SDS011;65532;52.124;5.480;2023-07-13T02:47:33;6.22;;;1.45;;
76636;SDS011;65532;52.124;5.480;2023-07-13T02:50:00;7.93;;;1.10;;
76636;SDS011;65532;52.124;5.480;2023-07-13T02:52:27;3.30;;;1.05;;
76636;SDS011;65532;52.124;5.480;2023-07-13T02:54:54;6.78;;;1.08;;
76636;SDS011;65532;52.124;5.480;2023-07-13T02:57:21;5.63;;;1.52;;
76636;SDS011;65532;52.124;5.480;2023-07-13T02:59:47;6.25;;;0.98;;
76636;SDS011;65532;52.124;5.480;2023-07-13T03:02:15;7.82;;;1.02;;
76636;SDS011;65532;52.124;5.480;2023-07-13T03:04:41;9.30;;;1.27;;
76636;SDS011;65532;52.124;5.480;2023-07-13T03:07:08;6.78;;;1.05;;
76636;SDS011;65532;52.124;5.480;2023-07-13T03:09:36;6.15;;;1.42;;
76636;SDS011;65532;52.124;5.480;2023-07-13T03:12:05;6.28;;;1.08;;
76636;SDS011;65532;52.124;5.480;2023-07-13T03:14:32;6.05;;;1.20;;
76636;SDS011;65532;52.124;5.480;2023-07-13T03:17:00;8.68;;;1.00;;
76636;SDS011;65532;52.124;5.480;2023-07-13T03:19:30;9.18;;;2.05;;
76636;SDS011;65532;52.124;5.480;2023-07-13T03:21:57;4.80;;;1.50;;
76636;SDS011;65532;52.124;5.480;2023-07-13T03:24:23;5.43;;;1.60;;
76636;SDS011;65532;52.124;5.480;2023-07-13T03:26:52;7.45;;;2.35;;
76636;SDS011;65532;52.124;5.480;2023-07-13T03:29:19;6.45;;;1.02;;
76636;SDS011;65532;52.124;5.480;2023-07-13T03:31:46;6.88;;;1.40;;
76636;SDS011;65532;52.124;5.480;2023-07-13T03:34:13;4.32;;;0.98;;
76636;SDS011;65532;52.124;5.480;2023-07-13T03:36:40;7.60;;;1.42;;
76636;SDS011;65532;52.124;5.480;2023-07-13T03:39:10;7.60;;;1.13;;
76636;SDS011;65532;52.124;5.480;2023-07-13T03:41:45;6.45;;;1.42;;
76636;SDS011;65532;52.124;5.480;2023-07-13T03:44:12;9.77;;;1.52;;
76636;SDS011;65532;52.124;5.480;2023-07-13T03:46:39;5.50;;;0.80;;
76636;SDS011;65532;52.124;5.480;2023-07-13T03:49:06;6.75;;;1.20;;
76636;SDS011;65532;52.124;5.480;2023-07-13T03:51:35;7.53;;;1.35;;
76636;SDS011;65532;52.124;5.480;2023-07-13T03:54:02;8.48;;;3.30;;
76636;SDS011;65532;52.124;5.480;2023-07-13T03:56:29;9.25;;;2.40;;
76636;SDS011;65532;52.124;5.480;2023-07-13T03:58:57;4.90;;;1.20;;
76636;SDS011;65532;52.124;5.480;2023-07-13T04:01:23;7.28;;;1.95;;
76636;SDS011;65532;52.124;5.480;2023-07-13T04:03:53;5.22;;;1.33;;
76636;SDS011;65532;52.124;5.480;2023-07-13T04:06:23;9.38;;;1.67;;
76636;SDS011;65532;52.124;5.480;2023-07-13T04:08:54;4.07;;;2.38;;
76636;SDS011;65532;52.124;5.480;2023-07-13T04:11:23;9.20;;;1.42;;
76636;SDS011;65532;52.124;5.480;2023-07-13T04:13:51;8.38;;;2.05;;
76636;SDS011;65532;52.124;5.480;2023-07-13T04:16:18;9.45;;;2.45;;
76636;SDS011;65532;52.124;5.480;2023-07-13T04:18:46;6.38;;;1.95;;
76636;SDS011;65532;52.124;5.480;2023-07-13T04:21:14;6.68;;;1.45;;
76636;SDS011;65532;52.124;5.480;2023-07-13T04:23:41;6.88;;;1.48;;
76636;SDS011;65532;52.124;5.480;2023-07-13T04:26:08;6.90;;;1.77;;
76636;SDS011;65532;52.124;5.480;2023-07-13T04:28:36;13.68;;;1.90;;
76636;SDS011;65532;52.124;5.480;2023-07-13T04:31:02;5.82;;;1.42;;
76636;SDS011;65532;52.124;5.480;2023-07-13T04:33:29;10.55;;;2.47;;
76636;SDS011;65532;52.124;5.480;2023-07-13T04:35:56;6.03;;;2.70;;
76636;SDS011;65532;52.124;5.480;2023-07-13T04:38:24;10.43;;;2.15;;
76636;SDS011;65532;52.124;5.480;2023-07-13T04:40:54;5.55;;;1.27;;
76636;SDS011;65532;52.124;5.480;2023-07-13T04:43:29;5.32;;;2.88;;
76636;SDS011;65532;52.124;5.480;2023-07-13T04:45:57;9.23;;;2.83;;
76636;SDS011;65532;52.124;5.480;2023-07-13T04:48:24;11.90;;;1.88;;
76636;SDS011;65532;52.124;5.480;2023-07-13T04:50:57;8.23;;;3.20;;
76636;SDS011;65532;52.124;5.480;2023-07-13T04:53:24;10.02;;;3.03;;
76636;SDS011;65532;52.124;5.480;2023-07-13T04:55:51;4.95;;;1.30;;
76636;SDS011;65532;52.124;5.480;2023-07-13T04:58:18;10.82;;;1.80;;
76636;SDS011;65532;52.124;5.480;2023-07-13T05:00:45;7.13;;;2.25;;
76636;SDS011;65532;52.124;5.480;2023-07-13T05:03:11;8.10;;;2.00;;
76636;SDS011;65532;52.124;5.480;2023-07-13T05:05:38;11.48;;;3.22;;
76636;SDS011;65532;52.124;5.480;2023-07-13T05:08:05;7.35;;;2.75;;
76636;SDS011;65532;52.124;5.480;2023-07-13T05:10:33;9.07;;;2.25;;
76636;SDS011;65532;52.124;5.480;2023-07-13T05:13:01;7.68;;;1.45;;
76636;SDS011;65532;52.124;5.480;2023-07-13T05:15:27;12.23;;;2.40;;
76636;SDS011;65532;52.124;5.480;2023-07-13T05:17:54;9.10;;;2.13;;
76636;SDS011;65532;52.124;5.480;2023-07-13T05:20:20;9.63;;;2.63;;
76636;SDS011;65532;52.124;5.480;2023-07-13T05:22:47;6.97;;;2.63;;
76636;SDS011;65532;52.124;5.480;2023-07-13T05:25:14;11.38;;;2.00;;
76636;SDS011;65532;52.124;5.480;2023-07-13T05:27:41;10.85;;;3.25;;
76636;SDS011;65532;52.124;5.480;2023-07-13T05:30:07;10.18;;;2.67;;
76636;SDS011;65532;52.124;5.480;2023-07-13T05:32:37;7.88;;;3.75;;
76636;SDS011;65532;52.124;5.480;2023-07-13T05:35:04;11.23;;;2.63;;
76636;SDS011;65532;52.124;5.480;2023-07-13T05:37:31;11.38;;;2.22;;
76636;SDS011;65532;52.124;5.480;2023-07-13T05:39:57;9.27;;;2.25;;
76636;SDS011;65532;52.124;5.480;2023-07-13T05:42:25;15.10;;;3.45;;
76636;SDS011;65532;52.124;5.480;2023-07-13T05:44:51;11.30;;;3.00;;
76636;SDS011;65532;52.124;5.480;2023-07-13T05:47:18;9.68;;;3.80;;
76636;SDS011;65532;52.124;5.480;2023-07-13T05:49:45;9.38;;;4.38;;
76636;SDS011;65532;52.124;5.480;2023-07-13T05:52:11;11.07;;;3.92;;
76636;SDS011;65532;52.124;5.480;2023-07-13T05:54:38;11.80;;;3.97;;
76636;SDS011;65532;52.124;5.480;2023-07-13T05:57:05;16.15;;;4.50;;
76636;SDS011;65532;52.124;5.480;2023-07-13T05:59:31;10.02;;;2.90;;
76636;SDS011;65532;52.124;5.480;2023-07-13T06:01:58;12.07;;;4.65;;
76636;SDS011;65532;52.124;5.480;2023-07-13T06:04:25;12.93;;;4.63;;
76636;SDS011;65532;52.124;5.480;2023-07-13T06:06:51;13.68;;;5.20;;
76636;SDS011;65532;52.124;5.480;2023-07-13T06:09:19;10.48;;;4.30;;
76636;SDS011;65532;52.124;5.480;2023-07-13T06:11:45;14.40;;;4.20;;
76636;SDS011;65532;52.124;5.480;2023-07-13T06:14:12;13.93;;;5.18;;
76636;SDS011;65532;52.124;5.480;2023-07-13T06:16:39;10.88;;;4.85;;
76636;SDS011;65532;52.124;5.480;2023-07-13T06:19:06;13.60;;;4.70;;
76636;SDS011;65532;52.124;5.480;2023-07-13T06:21:33;13.77;;;4.18;;
76636;SDS011;65532;52.124;5.480;2023-07-13T06:23:59;14.93;;;3.67;;
76636;SDS011;65532;52.124;5.480;2023-07-13T06:26:26;8.00;;;3.35;;
76636;SDS011;65532;52.124;5.480;2023-07-13T06:28:54;10.02;;;4.15;;
76636;SDS011;65532;52.124;5.480;2023-07-13T06:31:20;11.63;;;5.22;;
76636;SDS011;65532;52.124;5.480;2023-07-13T06:33:47;11.00;;;4.63;;
76636;SDS011;65532;52.124;5.480;2023-07-13T06:36:14;12.63;;;4.68;;
76636;SDS011;65532;52.124;5.480;2023-07-13T06:38:41;10.63;;;5.22;;
76636;SDS011;65532;52.124;5.480;2023-07-13T06:41:08;14.25;;;5.32;;
76636;SDS011;65532;52.124;5.480;2023-07-13T06:43:35;10.18;;;4.00;;
76636;SDS011;65532;52.124;5.480;2023-07-13T06:46:02;14.57;;;4.80;;
76636;SDS011;65532;52.124;5.480;2023-07-13T06:48:29;12.65;;;4.38;;
76636;SDS011;65532;52.124;5.480;2023-07-13T06:50:56;14.90;;;5.20;;
76636;SDS011;65532;52.124;5.480;2023-07-13T06:53:23;19.52;;;7.25;;
76636;SDS011;65532;52.124;5.480;2023-07-13T06:55:50;11.38;;;4.57;;
76636;SDS011;65532;52.124;5.480;2023-07-13T06:58:18;12.40;;;3.85;;
76636;SDS011;65532;52.124;5.480;2023-07-13T07:00:45;14.00;;;5.20;;
76636;SDS011;65532;52.124;5.480;2023-07-13T07:03:13;11.10;;;5.05;;
76636;SDS011;65532;52.124;5.480;2023-07-13T07:05:40;15.52;;;5.18;;
76636;SDS011;65532;52.124;5.480;2023-07-13T07:08:06;14.70;;;5.45;;
76636;SDS011;65532;52.124;5.480;2023-07-13T07:10:33;12.73;;;6.07;;
76636;SDS011;65532;52.124;5.480;2023-07-13T07:13:00;12.95;;;5.47;;
76636;SDS011;65532;52.124;5.480;2023-07-13T07:15:27;12.07;;;5.22;;
76636;SDS011;65532;52.124;5.480;2023-07-13T07:17:54;14.10;;;5.95;;
76636;SDS011;65532;52.124;5.480;2023-07-13T07:20:21;12.40;;;5.05;;
76636;SDS011;65532;52.124;5.480;2023-07-13T07:22:48;15.38;;;4.63;;
76636;SDS011;65532;52.124;5.480;2023-07-13T07:25:15;20.27;;;6.05;;
76636;SDS011;65532;52.124;5.480;2023-07-13T07:27:42;13.80;;;4.95;;
76636;SDS011;65532;52.124;5.480;2023-07-13T07:30:12;13.00;;;6.10;;
76636;SDS011;65532;52.124;5.480;2023-07-13T07:32:42;13.82;;;5.15;;
76636;SDS011;65532;52.124;5.480;2023-07-13T07:35:22;8.90;;;4.82;;
76636;SDS011;65532;52.124;5.480;2023-07-13T07:37:49;15.57;;;5.93;;
76636;SDS011;65532;52.124;5.480;2023-07-13T07:40:17;12.48;;;5.53;;
76636;SDS011;65532;52.124;5.480;2023-07-13T07:42:47;10.95;;;4.50;;
76636;SDS011;65532;52.124;5.480;2023-07-13T07:45:14;12.75;;;6.13;;
76636;SDS011;65532;52.124;5.480;2023-07-13T07:47:41;13.32;;;4.53;;
76636;SDS011;65532;52.124;5.480;2023-07-13T07:50:08;18.35;;;6.00;;
76636;SDS011;65532;52.124;5.480;2023-07-13T07:52:35;10.85;;;5.47;;
76636;SDS011;65532;52.124;5.480;2023-07-13T07:55:03;22.05;;;6.32;;
76636;SDS011;65532;52.124;5.480;2023-07-13T07:57:34;12.20;;;5.18;;
76636;SDS011;65532;52.124;5.480;2023-07-13T08:00:20;13.98;;;6.47;;
76636;SDS011;65532;52.124;5.480;2023-07-13T08:02:50;12.35;;;6.68;;
76636;SDS011;65532;52.124;5.480;2023-07-13T08:05:19;14.73;;;5.90;;
76636;SDS011;65532;52.124;5.480;2023-07-13T08:08:06;12.80;;;4.43;;
76636;SDS011;65532;52.124;5.480;2023-07-13T08:10:34;15.52;;;4.68;;
76636;SDS011;65532;52.124;5.480;2023-07-13T08:13:03;11.70;;;4.43;;
76636;SDS011;65532;52.124;5.480;2023-07-13T08:15:32;9.52;;;4.38;;
76636;SDS011;65532;52.124;5.480;2023-07-13T08:17:59;12.00;;;4.30;;
76636;SDS011;65532;52.124;5.480;2023-07-13T08:20:26;15.18;;;4.18;;
76636;SDS011;65532;52.124;5.480;2023-07-13T08:22:52;9.75;;;3.83;;
76636;SDS011;65532;52.124;5.480;2023-07-13T08:25:19;15.73;;;6.75;;
76636;SDS011;65532;52.124;5.480;2023-07-13T08:27:47;13.70;;;5.22;;
76636;SDS011;65532;52.124;5.480;2023-07-13T08:30:13;9.07;;;4.05;;
76636;SDS011;65532;52.124;5.480;2023-07-13T08:32:40;11.10;;;4.43;;
76636;SDS011;65532;52.124;5.480;2023-07-13T08:35:07;6.22;;;3.20;;
76636;SDS011;65532;52.124;5.480;2023-07-13T08:37:33;8.07;;;2.90;;
76636;SDS011;65532;52.124;5.480;2023-07-13T08:40:00;11.50;;;3.10;;
76636;SDS011;65532;52.124;5.480;2023-07-13T08:42:35;8.98;;;3.17;;
76636;SDS011;65532;52.124;5.480;2023-07-13T08:45:14;7.22;;;2.78;;
76636;SDS011;65532;52.124;5.480;2023-07-13T08:47:58;5.30;;;2.22;;
76636;SDS011;65532;52.124;5.480;2023-07-13T08:50:35;9.50;;;2.80;;
76636;SDS011;65532;52.124;5.480;2023-07-13T08:55:58;5.45;;;1.20;;
76636;SDS011;65532;52.124;5.480;2023-07-13T08:58:26;5.90;;;1.40;;
76636;SDS011;65532;52.124;5.480;2023-07-13T09:01:00;5.72;;;1.45;;
76636;SDS011;65532;52.124;5.480;2023-07-13T09:03:46;3.70;;;1.25;;
76636;SDS011;65532;52.124;5.480;2023-07-13T09:06:27;3.13;;;1.65;;
76636;SDS011;65532;52.124;5.480;2023-07-13T09:09:26;3.25;;;0.85;;
76636;SDS011;65532;52.124;5.480;2023-07-13T09:14:55;3.05;;;0.82;;
76636;SDS011;65532;52.124;5.480;2023-07-13T09:17:25;5.93;;;1.10;;
76636;SDS011;65532;52.124;5.480;2023-07-13T09:20:17;6.38;;;0.90;;
76636;SDS011;65532;52.124;5.480;2023-07-13T09:22:59;7.10;;;1.15;;
76636;SDS011;65532;52.124;5.480;2023-07-13T09:25:32;4.05;;;1.08;;
76636;SDS011;65532;52.124;5.480;2023-07-13T09:33:21;5.13;;;1.20;;
76636;SDS011;65532;52.124;5.480;2023-07-13T09:35:49;6.80;;;1.58;;
76636;SDS011;65532;52.124;5.480;2023-07-13T09:38:16;4.97;;;1.98;;
76636;SDS011;65532;52.124;5.480;2023-07-13T09:43:18;5.55;;;1.55;;
76636;SDS011;65532;52.124;5.480;2023-07-13T09:45:47;4.65;;;1.27;;
76636;SDS011;65532;52.124;5.480;2023-07-13T09:48:14;5.80;;;0.80;;
76636;SDS011;65532;52.124;5.480;2023-07-13T09:50:42;5.10;;;1.42;;
76636;SDS011;65532;52.124;5.480;2023-07-13T09:53:14;3.92;;;0.60;;
76636;SDS011;65532;52.124;5.480;2023-07-13T09:55:43;3.20;;;1.30;;
76636;SDS011;65532;52.124;5.480;2023-07-13T09:58:22;3.13;;;1.00;;
76636;SDS011;65532;52.124;5.480;2023-07-13T10:03:27;7.07;;;1.10;;
76636;SDS011;65532;52.124;5.480;2023-07-13T10:06:01;6.30;;;1.50;;
76636;SDS011;65532;52.124;5.480;2023-07-13T10:08:37;4.05;;;0.93;;
76636;SDS011;65532;52.124;5.480;2023-07-13T10:11:47;4.05;;;0.55;;
76636;SDS011;65532;52.124;5.480;2023-07-13T10:13:57;5.47;;;1.33;;
76636;SDS011;65532;52.124;5.480;2023-07-13T10:16:27;3.90;;;1.48;;
76636;SDS011;65532;52.124;5.480;2023-07-13T10:19:14;4.53;;;1.10;;
76636;SDS011;65532;52.124;5.480;2023-07-13T10:21:50;4.22;;;1.67;;
76636;SDS011;65532;52.124;5.480;2023-07-13T10:24:19;3.97;;;0.98;;
76636;SDS011;65532;52.124;5.480;2023-07-13T10:26:50;4.53;;;1.33;;
76636;SDS011;65532;52.124;5.480;2023-07-13T10:29:25;7.45;;;1.17;;
76636;SDS011;65532;52.124;5.480;2023-07-13T10:31:55;4.95;;;2.35;;
76636;SDS011;65532;52.124;5.480;2023-07-13T10:34:23;4.53;;;1.13;;
76636;SDS011;65532;52.124;5.480;2023-07-13T10:36:51;4.75;;;1.65;;
76636;SDS011;65532;52.124;5.480;2023-07-13T10:39:26;3.22;;;0.90;;
76636;SDS011;65532;52.124;5.480;2023-07-13T10:41:55;5.97;;;1.67;;
76636;SDS011;65532;52.124;5.480;2023-07-13T10:44:29;3.33;;;0.88;;
76636;SDS011;65532;52.124;5.480;2023-07-13T10:46:58;3.78;;;1.27;;
76636;SDS011;65532;52.124;5.480;2023-07-13T10:49:28;5.28;;;1.25;;
76636;SDS011;65532;52.124;5.480;2023-07-13T10:51:55;5.03;;;1.33;;
76636;SDS011;65532;52.124;5.480;2023-07-13T10:57:06;4.88;;;1.02;;
76636;SDS011;65532;52.124;5.480;2023-07-13T10:59:41;3.70;;;0.65;;
76636;SDS011;65532;52.124;5.480;2023-07-13T11:02:10;4.75;;;1.50;;
76636;SDS011;65532;52.124;5.480;2023-07-13T11:04:45;4.72;;;2.28;;
76636;SDS011;65532;52.124;5.480;2023-07-13T11:07:24;3.58;;;1.30;;
76636;SDS011;65532;52.124;5.480;2023-07-13T11:09:57;5.75;;;1.52;;
76636;SDS011;65532;52.124;5.480;2023-07-13T11:12:49;3.55;;;0.63;;
76636;SDS011;65532;52.124;5.480;2023-07-13T11:15:31;2.65;;;0.60;;
76636;SDS011;65532;52.124;5.480;2023-07-13T11:18:22;4.00;;;1.33;;
76636;SDS011;65532;52.124;5.480;2023-07-13T11:20:51;2.53;;;0.95;;
76636;SDS011;65532;52.124;5.480;2023-07-13T11:23:26;3.33;;;1.35;;
76636;SDS011;65532;52.124;5.480;2023-07-13T11:25:54;3.88;;;0.80;;
76636;SDS011;65532;52.124;5.480;2023-07-13T11:28:22;4.40;;;2.08;;
76636;SDS011;65532;52.124;5.480;2023-07-13T11:33:30;3.83;;;1.90;;
76636;SDS011;65532;52.124;5.480;2023-07-13T11:36:20;6.68;;;1.13;;
76636;SDS011;65532;52.124;5.480;2023-07-13T11:41:58;2.80;;;0.73;;
76636;SDS011;65532;52.124;5.480;2023-07-13T11:44:29;4.10;;;0.73;;
76636;SDS011;65532;52.124;5.480;2023-07-13T11:46:58;2.88;;;1.00;;
76636;SDS011;65532;52.124;5.480;2023-07-13T11:49:31;5.97;;;1.23;;
76636;SDS011;65532;52.124;5.480;2023-07-13T11:51:59;5.55;;;1.77;;
76636;SDS011;65532;52.124;5.480;2023-07-13T11:54:28;2.92;;;1.00;;
76636;SDS011;65532;52.124;5.480;2023-07-13T11:56:58;3.95;;;1.48;;
76636;SDS011;65532;52.124;5.480;2023-07-13T11:59:29;2.70;;;0.85;;
76636;SDS011;65532;52.124;5.480;2023-07-13T12:01:56;3.15;;;1.02;;
76636;SDS011;65532;52.124;5.480;2023-07-13T12:06:58;4.32;;;1.30;;
76636;SDS011;65532;52.124;5.480;2023-07-13T12:09:31;4.70;;;0.95;;
76636;SDS011;65532;52.124;5.480;2023-07-13T12:12:00;7.75;;;1.88;;
76636;SDS011;65532;52.124;5.480;2023-07-13T12:14:27;7.13;;;2.25;;
76636;SDS011;65532;52.124;5.480;2023-07-13T12:16:54;5.03;;;1.48;;
76636;SDS011;65532;52.124;5.480;2023-07-13T12:19:26;4.32;;;1.52;;
76636;SDS011;65532;52.124;5.480;2023-07-13T12:21:54;6.63;;;1.40;;
76636;SDS011;65532;52.124;5.480;2023-07-13T12:24:23;4.80;;;1.55;;
76636;SDS011;65532;52.124;5.480;2023-07-13T12:27:34;4.15;;;1.90;;
76636;SDS011;65532;52.124;5.480;2023-07-13T12:29:52;3.80;;;1.80;;
76636;SDS011;65532;52.124;5.480;2023-07-13T12:32:27;4.82;;;0.88;;
76636;SDS011;65532;52.124;5.480;2023-07-13T12:35:01;5.65;;;2.33;;
76636;SDS011;65532;52.124;5.480;2023-07-13T12:37:43;4.13;;;1.05;;
76636;SDS011;65532;52.124;5.480;2023-07-13T12:40:16;5.15;;;1.20;;
76636;SDS011;65532;52.124;5.480;2023-07-13T12:42:49;5.45;;;1.58;;
76636;SDS011;65532;52.124;5.480;2023-07-13T12:45:19;5.35;;;2.08;;
76636;SDS011;65532;52.124;5.480;2023-07-13T12:47:57;4.60;;;1.23;;
76636;SDS011;65532;52.124;5.480;2023-07-13T12:50:37;7.38;;;1.65;;
76636;SDS011;65532;52.124;5.480;2023-07-13T12:53:13;4.60;;;1.15;;
76636;SDS011;65532;52.124;5.480;2023-07-13T12:55:55;3.72;;;1.40;;
76636;SDS011;65532;52.124;5.480;2023-07-13T12:58:29;5.15;;;1.52;;
76636;SDS011;65532;52.124;5.480;2023-07-13T13:01:00;3.25;;;1.10;;
76636;SDS011;65532;52.124;5.480;2023-07-13T13:03:32;3.30;;;0.80;;
76636;SDS011;65532;52.124;5.480;2023-07-13T13:06:25;4.05;;;0.90;;
76636;SDS011;65532;52.124;5.480;2023-07-13T13:08:54;2.50;;;0.70;;
76636;SDS011;65532;52.124;5.480;2023-07-13T13:11:22;4.82;;;1.05;;
76636;SDS011;65532;52.124;5.480;2023-07-13T13:13:50;4.78;;;1.00;;
76636;SDS011;65532;52.124;5.480;2023-07-13T13:18:49;4.97;;;1.35;;
76636;SDS011;65532;52.124;5.480;2023-07-13T13:21:17;5.10;;;1.98;;
76636;SDS011;65532;52.124;5.480;2023-07-13T13:23:45;3.80;;;1.17;;
76636;SDS011;65532;52.124;5.480;2023-07-13T13:26:13;4.57;;;1.35;;
76636;SDS011;65532;52.124;5.480;2023-07-13T13:28:45;4.18;;;1.08;;
76636;SDS011;65532;52.124;5.480;2023-07-13T13:31:13;6.60;;;1.25;;
76636;SDS011;65532;52.124;5.480;2023-07-13T13:33:42;3.08;;;0.80;;
76636;SDS011;65532;52.124;5.480;2023-07-13T13:38:49;4.03;;;0.77;;
76636;SDS011;65532;52.124;5.480;2023-07-13T13:41:16;3.70;;;0.98;;
76636;SDS011;65532;52.124;5.480;2023-07-13T13:43:43;2.50;;;0.70;;
76636;SDS011;65532;52.124;5.480;2023-07-13T13:46:22;3.38;;;0.90;;
76636;SDS011;65532;52.124;5.480;2023-07-13T13:48:56;5.05;;;1.13;;
76636;SDS011;65532;52.124;5.480;2023-07-13T13:51:23;3.08;;;1.02;;
76636;SDS011;65532;52.124;5.480;2023-07-13T13:53:51;4.72;;;1.15;;
76636;SDS011;65532;52.124;5.480;2023-07-13T13:56:19;3.67;;;1.30;;
76636;SDS011;65532;52.124;5.480;2023-07-13T13:58:46;4.15;;;1.00;;
76636;SDS011;65532;52.124;5.480;2023-07-13T14:01:17;3.58;;;1.05;;
76636;SDS011;65532;52.124;5.480;2023-07-13T14:03:46;6.35;;;0.85;;
76636;SDS011;65532;52.124;5.480;2023-07-13T14:06:15;6.10;;;1.10;;
76636;SDS011;65532;52.124;5.480;2023-07-13T14:08:42;4.82;;;1.42;;
76636;SDS011;65532;52.124;5.480;2023-07-13T14:11:11;5.15;;;1.42;;
76636;SDS011;65532;52.124;5.480;2023-07-13T14:13:50;5.68;;;1.63;;
76636;SDS011;65532;52.124;5.480;2023-07-13T14:16:22;3.63;;;1.02;;
76636;SDS011;65532;52.124;5.480;2023-07-13T14:18:54;4.72;;;1.98;;
76636;SDS011;65532;52.124;5.480;2023-07-13T14:21:22;3.28;;;0.75;;
76636;SDS011;65532;52.124;5.480;2023-07-13T14:23:49;2.88;;;0.98;;
76636;SDS011;65532;52.124;5.480;2023-07-13T14:26:20;4.43;;;1.77;;
76636;SDS011;65532;52.124;5.480;2023-07-13T14:28:56;3.22;;;0.82;;
76636;SDS011;65532;52.124;5.480;2023-07-13T14:31:24;4.70;;;1.30;;
76636;SDS011;65532;52.124;5.480;2023-07-13T14:33:56;4.90;;;0.93;;
76636;SDS011;65532;52.124;5.480;2023-07-13T14:36:25;4.05;;;1.75;;
76636;SDS011;65532;52.124;5.480;2023-07-13T14:38:59;4.00;;;1.50;;
76636;SDS011;65532;52.124;5.480;2023-07-13T14:41:27;3.50;;;1.00;;
76636;SDS011;65532;52.124;5.480;2023-07-13T14:43:54;3.67;;;1.50;;
76636;SDS011;65532;52.124;5.480;2023-07-13T14:46:31;3.05;;;1.13;;
76636;SDS011;65532;52.124;5.480;2023-07-13T14:49:00;3.90;;;0.70;;
76636;SDS011;65532;52.124;5.480;2023-07-13T14:51:30;3.83;;;1.20;;
76636;SDS011;65532;52.124;5.480;2023-07-13T14:54:03;4.63;;;1.42;;
76636;SDS011;65532;52.124;5.480;2023-07-13T14:56:31;3.15;;;2.30;;
76636;SDS011;65532;52.124;5.480;2023-07-13T14:58:58;2.40;;;0.52;;
76636;SDS011;65532;52.124;5.480;2023-07-13T15:01:25;5.15;;;1.48;;
76636;SDS011;65532;52.124;5.480;2023-07-13T15:03:52;4.22;;;1.33;;
76636;SDS011;65532;52.124;5.480;2023-07-13T15:06:19;3.88;;;0.75;;
76636;SDS011;65532;52.124;5.480;2023-07-13T15:08:46;5.60;;;0.85;;
76636;SDS011;65532;52.124;5.480;2023-07-13T15:11:13;4.80;;;0.90;;
76636;SDS011;65532;52.124;5.480;2023-07-13T15:13:40;3.15;;;0.88;;
76636;SDS011;65532;52.124;5.480;2023-07-13T15:16:15;2.63;;;0.60;;
76636;SDS011;65532;52.124;5.480;2023-07-13T15:18:48;3.10;;;1.40;;
76636;SDS011;65532;52.124;5.480;2023-07-13T15:21:22;4.90;;;1.95;;
76636;SDS011;65532;52.124;5.480;2023-07-13T15:23:51;3.22;;;1.05;;
76636;SDS011;65532;52.124;5.480;2023-07-13T15:26:18;2.33;;;0.68;;
76636;SDS011;65532;52.124;5.480;2023-07-13T15:28:46;3.53;;;1.30;;
76636;SDS011;65532;52.124;5.480;2023-07-13T15:31:18;4.68;;;0.85;;
76636;SDS011;65532;52.124;5.480;2023-07-13T15:33:48;2.95;;;0.82;;